Terminal Aerodrome Forecast
Issued by NWS Tulsa, OK

Home | Current Version | Previous Version | Text Only | Print | Product List | Glossary On
Versions: 1 2 3 4 5 6 7 8 9 10 11 12 13 14 15 16 17 18
424
FTUS44 KTSA 241727
TAFFSM
TAF
KFSM 241727Z 2418/2518 07011KT P6SM SCT250
     FM241900 17015G22KT P6SM FEW250
     FM250000 17012KT P6SM SCT250
     FM250300 23008KT P6SM OVC025
     FM250900 27010KT P6SM SCT250=

USA.gov is the U.S. government's official web portal to all federal, state and local government web resources and services.